createdAt,value
2022-09-16T02:17:33.649Z,9.57
2022-09-16T02:20:25.337Z,9.45
2022-09-16T02:23:16.666Z,10.13
2022-09-16T02:26:04.506Z,9.68
2022-09-16T02:28:53.863Z,9.18
2022-09-16T02:31:41.693Z,9.77
2022-09-16T02:34:32.794Z,9.35
2022-09-16T02:37:23.717Z,8.73
2022-09-16T02:40:17.880Z,11.75
2022-09-16T02:43:05.480Z,10.70
2022-09-16T02:46:11.626Z,8.68
2022-09-16T02:49:19.207Z,11.67
2022-09-16T02:52:14.951Z,7.95
2022-09-16T02:55:11.680Z,11.30
2022-09-16T03:00:52.132Z,10.70
2022-09-16T09:59:58.780Z,5.95
2022-09-16T10:02:49.753Z,4.35
2022-09-16T10:05:40.787Z,5.95
2022-09-16T10:08:41.485Z,4.28
2022-09-16T10:14:33.199Z,5.53
2022-09-16T10:17:27.784Z,5.70
2022-09-16T10:20:29.965Z,6.32
2022-09-16T10:23:26.351Z,6.00
2022-09-16T10:26:27.948Z,5.65
2022-09-16T10:29:18.122Z,4.15
2022-09-16T10:32:09.952Z,9.23
2022-09-16T10:34:58.884Z,5.57
2022-09-16T10:37:52.976Z,4.82
2022-09-16T10:40:54.877Z,5.12
2022-09-16T10:43:49.703Z,4.90
2022-09-16T10:46:38.666Z,5.00
2022-09-16T10:49:48.721Z,3.72
2022-09-16T10:52:44.825Z,4.78
2022-09-16T10:55:36.650Z,6.12
2022-09-16T10:58:24.778Z,4.93
2022-09-16T11:01:23.281Z,5.82
2022-09-16T11:04:33.204Z,6.57
2022-09-16T11:07:46.728Z,8.23
2022-09-16T11:10:45.383Z,4.62
2022-09-16T11:13:47.662Z,8.77
2022-09-16T11:17:12.730Z,5.30
2022-09-16T11:20:06.715Z,4.45
2022-09-16T11:23:20.271Z,6.00
2022-09-16T11:26:46.020Z,5.87
2022-09-16T11:29:49.727Z,5.78
2022-09-16T11:32:52.010Z,4.55
2022-09-16T11:36:01.813Z,5.25
2022-09-16T11:39:06.926Z,5.05
2022-09-16T11:42:07.740Z,2.62
2022-09-16T11:45:22.909Z,4.70
2022-09-16T11:48:28.878Z,5.55
2022-09-16T11:51:31.958Z,6.07
2022-09-16T11:54:47.949Z,3.55
2022-09-16T11:57:44.452Z,2.55
2022-09-16T12:00:32.908Z,3.95
2022-09-16T12:03:36.239Z,5.80
2022-09-16T12:06:25.739Z,4.68
2022-09-16T12:09:26.852Z,2.67
2022-09-16T12:12:24.879Z,7.18
2022-09-16T12:15:23.812Z,5.45
2022-09-16T12:18:17.941Z,6.37
2022-09-16T12:21:12.771Z,3.15
2022-09-16T12:24:06.905Z,2.30
2022-09-16T12:27:05.846Z,3.37
2022-09-16T12:30:02.323Z,2.92
2022-09-16T12:36:13.785Z,3.10
2022-09-16T12:42:06.744Z,6.12
2022-09-16T12:48:24.161Z,3.05
